sensor_id;sensor_type;location;lat;lon;timestamp;temperature;humidity
74901;DHT22;63461;51.416;6.758;2023-12-29T00:00:39;11.00;99.90
74901;DHT22;63461;51.416;6.758;2023-12-29T00:03:05;11.00;99.90
74901;DHT22;63461;51.416;6.758;2023-12-29T00:05:31;11.00;99.90
74901;DHT22;63461;51.416;6.758;2023-12-29T00:07:57;11.10;99.90
74901;DHT22;63461;51.416;6.758;2023-12-29T00:10:22;11.10;99.90
74901;DHT22;63461;51.416;6.758;2023-12-29T00:12:48;11.10;99.90
74901;DHT22;63461;51.416;6.758;2023-12-29T00:15:17;11.10;99.90
74901;DHT22;63461;51.416;6.758;2023-12-29T00:17:44;11.10;99.90
74901;DHT22;63461;51.416;6.758;2023-12-29T00:20:11;11.00;99.90
74901;DHT22;63461;51.416;6.758;2023-12-29T00:22:40;11.10;99.90
74901;DHT22;63461;51.416;6.758;2023-12-29T00:25:06;11.10;99.90
74901;DHT22;63461;51.416;6.758;2023-12-29T00:27:35;11.10;99.90
74901;DHT22;63461;51.416;6.758;2023-12-29T00:30:02;11.10;99.90
74901;DHT22;63461;51.416;6.758;2023-12-29T00:32:28;11.10;99.90
74901;DHT22;63461;51.416;6.758;2023-12-29T00:34:54;11.10;99.90
74901;DHT22;63461;51.416;6.758;2023-12-29T00:37:21;11.10;99.90
74901;DHT22;63461;51.416;6.758;2023-12-29T00:39:47;11.10;99.90
74901;DHT22;63461;51.416;6.758;2023-12-29T00:42:12;11.10;99.90
74901;DHT22;63461;51.416;6.758;2023-12-29T00:44:41;11.10;99.90
74901;DHT22;63461;51.416;6.758;2023-12-29T00:47:07;11.10;99.90
74901;DHT22;63461;51.416;6.758;2023-12-29T00:49:33;11.10;99.90
74901;DHT22;63461;51.416;6.758;2023-12-29T00:51:59;11.10;99.90
74901;DHT22;63461;51.416;6.758;2023-12-29T00:54:25;11.10;99.90
74901;DHT22;63461;51.416;6.758;2023-12-29T00:56:51;11.10;99.90
74901;DHT22;63461;51.416;6.758;2023-12-29T00:59:20;11.10;99.90
74901;DHT22;63461;51.416;6.758;2023-12-29T01:01:46;11.10;99.90
74901;DHT22;63461;51.416;6.758;2023-12-29T01:04:12;11.10;99.90
74901;DHT22;63461;51.416;6.758;2023-12-29T01:06:38;11.10;99.90
74901;DHT22;63461;51.416;6.758;2023-12-29T01:09:03;11.10;99.90
74901;DHT22;63461;51.416;6.758;2023-12-29T01:11:29;11.10;99.90
74901;DHT22;63461;51.416;6.758;2023-12-29T01:13:56;11.10;99.90
74901;DHT22;63461;51.416;6.758;2023-12-29T01:16:21;11.10;99.90
74901;DHT22;63461;51.416;6.758;2023-12-29T01:18:47;11.10;99.90
74901;DHT22;63461;51.416;6.758;2023-12-29T01:21:13;11.10;99.90
74901;DHT22;63461;51.416;6.758;2023-12-29T01:23:39;11.10;99.90
74901;DHT22;63461;51.416;6.758;2023-12-29T01:26:04;11.10;99.90
74901;DHT22;63461;51.416;6.758;2023-12-29T01:28:30;11.10;99.90
74901;DHT22;63461;51.416;6.758;2023-12-29T01:30:57;11.10;99.90
74901;DHT22;63461;51.416;6.758;2023-12-29T01:33:24;11.10;99.90
74901;DHT22;63461;51.416;6.758;2023-12-29T01:35:50;11.10;99.90
74901;DHT22;63461;51.416;6.758;2023-12-29T01:38:15;11.10;99.90
74901;DHT22;63461;51.416;6.758;2023-12-29T01:40:45;11.10;99.90
74901;DHT22;63461;51.416;6.758;2023-12-29T01:43:13;11.00;99.90
74901;DHT22;63461;51.416;6.758;2023-12-29T01:45:38;11.00;99.90
74901;DHT22;63461;51.416;6.758;2023-12-29T01:48:05;11.00;99.90
74901;DHT22;63461;51.416;6.758;2023-12-29T01:50:31;11.00;99.90
74901;DHT22;63461;51.416;6.758;2023-12-29T01:52:58;11.00;99.90
74901;DHT22;63461;51.416;6.758;2023-12-29T01:55:26;11.00;99.90
74901;DHT22;63461;51.416;6.758;2023-12-29T01:57:53;11.00;99.90
74901;DHT22;63461;51.416;6.758;2023-12-29T02:00:20;10.90;99.90
74901;DHT22;63461;51.416;6.758;2023-12-29T02:02:48;10.90;99.90
74901;DHT22;63461;51.416;6.758;2023-12-29T02:05:15;10.90;99.90
74901;DHT22;63461;51.416;6.758;2023-12-29T02:07:42;10.80;99.90
74901;DHT22;63461;51.416;6.758;2023-12-29T02:10:08;10.80;99.90
74901;DHT22;63461;51.416;6.758;2023-12-29T02:12:35;10.70;99.90
74901;DHT22;63461;51.416;6.758;2023-12-29T02:15:05;10.60;99.90
74901;DHT22;63461;51.416;6.758;2023-12-29T02:17:38;10.70;99.90
74901;DHT22;63461;51.416;6.758;2023-12-29T02:20:05;10.70;99.90
74901;DHT22;63461;51.416;6.758;2023-12-29T02:22:32;10.70;99.90
74901;DHT22;63461;51.416;6.758;2023-12-29T02:24:58;10.70;99.90
74901;DHT22;63461;51.416;6.758;2023-12-29T02:30:26;10.60;99.90
74901;DHT22;63461;51.416;6.758;2023-12-29T02:32:55;10.60;99.90
74901;DHT22;63461;51.416;6.758;2023-12-29T02:35:28;10.60;99.90
74901;DHT22;63461;51.416;6.758;2023-12-29T02:37:57;10.50;99.90
74901;DHT22;63461;51.416;6.758;2023-12-29T02:40:24;10.50;99.90
74901;DHT22;63461;51.416;6.758;2023-12-29T02:42:50;10.60;99.90
74901;DHT22;63461;51.416;6.758;2023-12-29T02:45:17;10.60;99.90
74901;DHT22;63461;51.416;6.758;2023-12-29T02:47:44;10.50;99.90
74901;DHT22;63461;51.416;6.758;2023-12-29T02:50:10;10.50;99.90
74901;DHT22;63461;51.416;6.758;2023-12-29T02:52:36;10.60;99.90
74901;DHT22;63461;51.416;6.758;2023-12-29T02:55:03;10.60;99.90
74901;DHT22;63461;51.416;6.758;2023-12-29T02:57:29;10.60;99.90
74901;DHT22;63461;51.416;6.758;2023-12-29T02:59:56;10.50;99.90
74901;DHT22;63461;51.416;6.758;2023-12-29T03:02:23;10.60;99.90
74901;DHT22;63461;51.416;6.758;2023-12-29T03:04:49;10.60;99.90
74901;DHT22;63461;51.416;6.758;2023-12-29T03:07:16;10.60;99.90
74901;DHT22;63461;51.416;6.758;2023-12-29T03:09:42;10.60;99.90
74901;DHT22;63461;51.416;6.758;2023-12-29T03:12:08;10.60;99.90
74901;DHT22;63461;51.416;6.758;2023-12-29T03:14:34;10.50;99.90
74901;DHT22;63461;51.416;6.758;2023-12-29T03:17:00;10.60;99.90
74901;DHT22;63461;51.416;6.758;2023-12-29T03:19:27;10.60;99.90
74901;DHT22;63461;51.416;6.758;2023-12-29T03:21:53;10.60;99.90
74901;DHT22;63461;51.416;6.758;2023-12-29T03:24:20;10.60;99.90
74901;DHT22;63461;51.416;6.758;2023-12-29T03:26:47;10.60;99.90
74901;DHT22;63461;51.416;6.758;2023-12-29T03:29:13;10.60;99.90
74901;DHT22;63461;51.416;6.758;2023-12-29T03:31:39;10.60;99.90
74901;DHT22;63461;51.416;6.758;2023-12-29T03:34:05;10.50;99.90
74901;DHT22;63461;51.416;6.758;2023-12-29T03:36:31;10.60;99.90
74901;DHT22;63461;51.416;6.758;2023-12-29T03:38:57;10.60;99.90
74901;DHT22;63461;51.416;6.758;2023-12-29T03:41:23;10.60;99.90
74901;DHT22;63461;51.416;6.758;2023-12-29T03:43:49;10.60;99.90
74901;DHT22;63461;51.416;6.758;2023-12-29T03:46:20;10.60;99.90
74901;DHT22;63461;51.416;6.758;2023-12-29T03:48:46;10.60;99.90
74901;DHT22;63461;51.416;6.758;2023-12-29T03:51:13;10.60;99.90
74901;DHT22;63461;51.416;6.758;2023-12-29T03:53:39;10.70;99.90
74901;DHT22;63461;51.416;6.758;2023-12-29T03:56:06;10.70;99.90
74901;DHT22;63461;51.416;6.758;2023-12-29T03:58:32;10.70;99.90
74901;DHT22;63461;51.416;6.758;2023-12-29T04:00:58;10.70;99.90
74901;DHT22;63461;51.416;6.758;2023-12-29T04:03:24;10.60;99.90
74901;DHT22;63461;51.416;6.758;2023-12-29T04:05:50;10.60;99.90
74901;DHT22;63461;51.416;6.758;2023-12-29T04:08:15;10.60;99.90
74901;DHT22;63461;51.416;6.758;2023-12-29T04:10:42;10.60;99.90
74901;DHT22;63461;51.416;6.758;2023-12-29T04:13:07;10.60;99.90
74901;DHT22;63461;51.416;6.758;2023-12-29T04:15:33;10.60;99.90
74901;DHT22;63461;51.416;6.758;2023-12-29T04:17:59;10.60;99.90
74901;DHT22;63461;51.416;6.758;2023-12-29T04:20:25;10.70;99.90
74901;DHT22;63461;51.416;6.758;2023-12-29T04:22:51;10.70;99.90
74901;DHT22;63461;51.416;6.758;2023-12-29T04:25:16;10.70;99.90
74901;DHT22;63461;51.416;6.758;2023-12-29T04:27:42;10.70;99.90
74901;DHT22;63461;51.416;6.758;2023-12-29T04:30:08;10.80;99.90
74901;DHT22;63461;51.416;6.758;2023-12-29T04:32:34;10.80;99.90
74901;DHT22;63461;51.416;6.758;2023-12-29T04:35:00;10.80;99.90
74901;DHT22;63461;51.416;6.758;2023-12-29T04:37:25;10.80;99.90
74901;DHT22;63461;51.416;6.758;2023-12-29T04:39:51;10.80;99.90
74901;DHT22;63461;51.416;6.758;2023-12-29T04:42:17;10.70;99.90
74901;DHT22;63461;51.416;6.758;2023-12-29T04:44:44;10.60;99.90
74901;DHT22;63461;51.416;6.758;2023-12-29T04:47:10;10.70;99.90
74901;DHT22;63461;51.416;6.758;2023-12-29T04:49:36;10.60;99.90
74901;DHT22;63461;51.416;6.758;2023-12-29T04:52:01;10.60;99.90
74901;DHT22;63461;51.416;6.758;2023-12-29T04:54:27;10.60;99.90
74901;DHT22;63461;51.416;6.758;2023-12-29T04:56:53;10.60;99.90
74901;DHT22;63461;51.416;6.758;2023-12-29T04:59:19;10.60;99.90
74901;DHT22;63461;51.416;6.758;2023-12-29T05:01:45;10.60;99.90
74901;DHT22;63461;51.416;6.758;2023-12-29T05:04:10;10.60;99.90
74901;DHT22;63461;51.416;6.758;2023-12-29T05:06:36;10.60;99.90
74901;DHT22;63461;51.416;6.758;2023-12-29T05:09:02;10.60;99.90
74901;DHT22;63461;51.416;6.758;2023-12-29T05:11:28;10.60;99.90
74901;DHT22;63461;51.416;6.758;2023-12-29T05:13:54;10.60;99.90
74901;DHT22;63461;51.416;6.758;2023-12-29T05:16:19;10.60;99.90
74901;DHT22;63461;51.416;6.758;2023-12-29T05:18:45;10.60;99.90
74901;DHT22;63461;51.416;6.758;2023-12-29T05:21:15;10.60;99.90
74901;DHT22;63461;51.416;6.758;2023-12-29T05:23:41;10.60;99.90
74901;DHT22;63461;51.416;6.758;2023-12-29T05:26:07;10.60;99.90
74901;DHT22;63461;51.416;6.758;2023-12-29T05:28:33;10.60;99.90
74901;DHT22;63461;51.416;6.758;2023-12-29T05:30:59;10.60;99.90
74901;DHT22;63461;51.416;6.758;2023-12-29T05:33:29;10.60;99.90
74901;DHT22;63461;51.416;6.758;2023-12-29T05:35:55;10.60;99.90
74901;DHT22;63461;51.416;6.758;2023-12-29T05:38:21;10.60;99.90
74901;DHT22;63461;51.416;6.758;2023-12-29T05:40:47;10.60;99.90
74901;DHT22;63461;51.416;6.758;2023-12-29T05:43:14;10.60;99.90
74901;DHT22;63461;51.416;6.758;2023-12-29T05:45:40;10.60;99.90
74901;DHT22;63461;51.416;6.758;2023-12-29T05:48:06;10.60;99.90
74901;DHT22;63461;51.416;6.758;2023-12-29T05:50:32;10.60;99.90
74901;DHT22;63461;51.416;6.758;2023-12-29T05:52:58;10.70;99.90
74901;DHT22;63461;51.416;6.758;2023-12-29T05:55:24;10.70;99.90
74901;DHT22;63461;51.416;6.758;2023-12-29T05:57:49;10.60;99.90
74901;DHT22;63461;51.416;6.758;2023-12-29T06:00:15;10.70;99.90
74901;DHT22;63461;51.416;6.758;2023-12-29T06:02:42;10.70;99.90
74901;DHT22;63461;51.416;6.758;2023-12-29T06:05:10;10.60;99.90
74901;DHT22;63461;51.416;6.758;2023-12-29T06:07:36;10.60;99.90
74901;DHT22;63461;51.416;6.758;2023-12-29T06:10:02;10.60;99.90
74901;DHT22;63461;51.416;6.758;2023-12-29T06:12:29;10.60;99.90
74901;DHT22;63461;51.416;6.758;2023-12-29T06:14:54;10.60;99.90
74901;DHT22;63461;51.416;6.758;2023-12-29T06:17:20;10.50;99.90
74901;DHT22;63461;51.416;6.758;2023-12-29T06:19:46;10.50;99.90
74901;DHT22;63461;51.416;6.758;2023-12-29T06:22:12;10.50;99.90
74901;DHT22;63461;51.416;6.758;2023-12-29T06:24:40;10.40;99.90
74901;DHT22;63461;51.416;6.758;2023-12-29T06:27:08;10.40;99.90
74901;DHT22;63461;51.416;6.758;2023-12-29T06:29:34;10.40;99.90
74901;DHT22;63461;51.416;6.758;2023-12-29T06:32:01;10.40;99.90
74901;DHT22;63461;51.416;6.758;2023-12-29T06:34:27;10.40;99.90
74901;DHT22;63461;51.416;6.758;2023-12-29T06:36:52;10.40;99.90
74901;DHT22;63461;51.416;6.758;2023-12-29T06:39:18;10.40;99.90
74901;DHT22;63461;51.416;6.758;2023-12-29T06:41:44;10.50;99.90
74901;DHT22;63461;51.416;6.758;2023-12-29T06:44:10;10.50;99.90
74901;DHT22;63461;51.416;6.758;2023-12-29T06:46:39;10.50;99.90
74901;DHT22;63461;51.416;6.758;2023-12-29T06:49:09;10.60;99.90
74901;DHT22;63461;51.416;6.758;2023-12-29T06:51:35;10.60;99.90
74901;DHT22;63461;51.416;6.758;2023-12-29T06:54:06;10.60;99.90
74901;DHT22;63461;51.416;6.758;2023-12-29T06:56:32;10.60;99.90
74901;DHT22;63461;51.416;6.758;2023-12-29T06:58:58;10.60;99.90
74901;DHT22;63461;51.416;6.758;2023-12-29T07:01:24;10.60;99.90
74901;DHT22;63461;51.416;6.758;2023-12-29T07:03:50;10.60;99.90
74901;DHT22;63461;51.416;6.758;2023-12-29T07:06:16;10.60;99.90
74901;DHT22;63461;51.416;6.758;2023-12-29T07:08:42;10.70;99.90
74901;DHT22;63461;51.416;6.758;2023-12-29T07:11:11;10.60;99.90
74901;DHT22;63461;51.416;6.758;2023-12-29T07:13:37;10.60;99.90
74901;DHT22;63461;51.416;6.758;2023-12-29T07:16:04;10.60;99.90
74901;DHT22;63461;51.416;6.758;2023-12-29T07:18:30;10.50;99.90
74901;DHT22;63461;51.416;6.758;2023-12-29T07:20:56;10.50;99.90
74901;DHT22;63461;51.416;6.758;2023-12-29T07:23:21;10.50;99.90
74901;DHT22;63461;51.416;6.758;2023-12-29T07:25:48;10.50;99.90
74901;DHT22;63461;51.416;6.758;2023-12-29T07:28:14;10.40;99.90
74901;DHT22;63461;51.416;6.758;2023-12-29T07:30:40;10.50;99.90
74901;DHT22;63461;51.416;6.758;2023-12-29T07:33:06;10.50;99.90
74901;DHT22;63461;51.416;6.758;2023-12-29T07:35:32;10.40;99.90
74901;DHT22;63461;51.416;6.758;2023-12-29T07:37:58;10.40;99.90
74901;DHT22;63461;51.416;6.758;2023-12-29T07:40:23;10.40;99.90
74901;DHT22;63461;51.416;6.758;2023-12-29T07:42:49;10.40;99.90
74901;DHT22;63461;51.416;6.758;2023-12-29T07:45:16;10.30;99.90
74901;DHT22;63461;51.416;6.758;2023-12-29T07:47:43;10.30;99.90
74901;DHT22;63461;51.416;6.758;2023-12-29T07:50:09;10.30;99.90
74901;DHT22;63461;51.416;6.758;2023-12-29T07:52:35;10.40;99.90
74901;DHT22;63461;51.416;6.758;2023-12-29T07:55:00;10.40;99.90
74901;DHT22;63461;51.416;6.758;2023-12-29T07:57:26;10.40;99.90
74901;DHT22;63461;51.416;6.758;2023-12-29T07:59:52;10.40;99.90
74901;DHT22;63461;51.416;6.758;2023-12-29T08:02:18;10.40;99.90
74901;DHT22;63461;51.416;6.758;2023-12-29T08:04:44;10.40;99.90
74901;DHT22;63461;51.416;6.758;2023-12-29T08:07:12;10.40;99.90
74901;DHT22;63461;51.416;6.758;2023-12-29T08:09:38;10.40;99.90
74901;DHT22;63461;51.416;6.758;2023-12-29T08:12:04;10.40;99.90
74901;DHT22;63461;51.416;6.758;2023-12-29T08:14:29;10.40;99.90
74901;DHT22;63461;51.416;6.758;2023-12-29T08:16:55;10.40;99.90
74901;DHT22;63461;51.416;6.758;2023-12-29T08:19:22;10.40;99.90
74901;DHT22;63461;51.416;6.758;2023-12-29T08:21:48;10.40;99.90
74901;DHT22;63461;51.416;6.758;2023-12-29T08:24:14;10.40;99.90
74901;DHT22;63461;51.416;6.758;2023-12-29T08:26:46;10.40;99.90
74901;DHT22;63461;51.416;6.758;2023-12-29T08:29:13;10.50;99.90
74901;DHT22;63461;51.416;6.758;2023-12-29T08:31:39;10.40;99.90
74901;DHT22;63461;51.416;6.758;2023-12-29T08:34:05;10.40;99.90
74901;DHT22;63461;51.416;6.758;2023-12-29T08:36:31;10.40;99.90
74901;DHT22;63461;51.416;6.758;2023-12-29T08:38:59;10.40;99.90
74901;DHT22;63461;51.416;6.758;2023-12-29T08:41:40;10.40;99.90
74901;DHT22;63461;51.416;6.758;2023-12-29T08:44:12;10.40;99.90
74901;DHT22;63461;51.416;6.758;2023-12-29T08:46:43;10.40;99.90
74901;DHT22;63461;51.416;6.758;2023-12-29T08:49:08;10.50;99.90
74901;DHT22;63461;51.416;6.758;2023-12-29T08:51:45;10.50;99.90
74901;DHT22;63461;51.416;6.758;2023-12-29T08:54:34;10.40;99.90
74901;DHT22;63461;51.416;6.758;2023-12-29T08:57:00;10.50;99.90
74901;DHT22;63461;51.416;6.758;2023-12-29T08:59:25;10.50;99.90
74901;DHT22;63461;51.416;6.758;2023-12-29T09:02:00;10.50;99.90
74901;DHT22;63461;51.416;6.758;2023-12-29T09:04:34;10.50;99.90
74901;DHT22;63461;51.416;6.758;2023-12-29T09:07:00;10.50;99.90
74901;DHT22;63461;51.416;6.758;2023-12-29T09:09:25;10.40;99.90
74901;DHT22;63461;51.416;6.758;2023-12-29T09:11:51;10.50;99.90
74901;DHT22;63461;51.416;6.758;2023-12-29T09:14:19;10.50;99.90
74901;DHT22;63461;51.416;6.758;2023-12-29T09:16:45;10.50;99.90
74901;DHT22;63461;51.416;6.758;2023-12-29T09:19:12;10.50;99.90
74901;DHT22;63461;51.416;6.758;2023-12-29T09:21:38;10.50;99.90
74901;DHT22;63461;51.416;6.758;2023-12-29T09:27:29;10.50;99.90
74901;DHT22;63461;51.416;6.758;2023-12-29T09:30:05;10.60;99.90
74901;DHT22;63461;51.416;6.758;2023-12-29T09:32:31;10.60;99.90
74901;DHT22;63461;51.416;6.758;2023-12-29T09:34:57;10.50;99.90
74901;DHT22;63461;51.416;6.758;2023-12-29T09:37:42;10.50;99.90
74901;DHT22;63461;51.416;6.758;2023-12-29T09:40:42;10.50;99.90
74901;DHT22;63461;51.416;6.758;2023-12-29T09:43:09;10.50;99.90
74901;DHT22;63461;51.416;6.758;2023-12-29T09:45:59;10.50;99.90
74901;DHT22;63461;51.416;6.758;2023-12-29T09:48:34;10.50;99.90
74901;DHT22;63461;51.416;6.758;2023-12-29T09:51:03;10.50;99.90
74901;DHT22;63461;51.416;6.758;2023-12-29T09:53:30;10.50;99.90
74901;DHT22;63461;51.416;6.758;2023-12-29T09:56:06;10.50;99.90
74901;DHT22;63461;51.416;6.758;2023-12-29T09:58:32;10.50;99.90
74901;DHT22;63461;51.416;6.758;2023-12-29T10:01:01;10.40;99.90
74901;DHT22;63461;51.416;6.758;2023-12-29T10:03:35;10.40;99.90
74901;DHT22;63461;51.416;6.758;2023-12-29T10:06:06;10.40;99.90
74901;DHT22;63461;51.416;6.758;2023-12-29T10:08:48;10.40;99.90
74901;DHT22;63461;51.416;6.758;2023-12-29T10:11:23;10.40;99.90
74901;DHT22;63461;51.416;6.758;2023-12-29T10:13:52;10.40;99.90
74901;DHT22;63461;51.416;6.758;2023-12-29T10:16:27;10.40;99.90
74901;DHT22;63461;51.416;6.758;2023-12-29T10:19:18;10.50;99.90
74901;DHT22;63461;51.416;6.758;2023-12-29T10:21:57;10.40;99.90
74901;DHT22;63461;51.416;6.758;2023-12-29T10:24:28;10.30;99.90
74901;DHT22;63461;51.416;6.758;2023-12-29T10:26:55;10.40;99.90
74901;DHT22;63461;51.416;6.758;2023-12-29T10:29:23;10.50;99.90
74901;DHT22;63461;51.416;6.758;2023-12-29T10:31:54;10.40;99.90
74901;DHT22;63461;51.416;6.758;2023-12-29T10:34:22;10.50;99.90
74901;DHT22;63461;51.416;6.758;2023-12-29T10:36:55;10.50;99.90
74901;DHT22;63461;51.416;6.758;2023-12-29T10:39:21;10.50;99.90
74901;DHT22;63461;51.416;6.758;2023-12-29T10:41:49;10.60;99.90
74901;DHT22;63461;51.416;6.758;2023-12-29T10:44:26;10.60;99.90
74901;DHT22;63461;51.416;6.758;2023-12-29T10:47:08;10.60;99.90
74901;DHT22;63461;51.416;6.758;2023-12-29T10:49:35;10.60;99.90
74901;DHT22;63461;51.416;6.758;2023-12-29T10:52:13;10.70;99.90
74901;DHT22;63461;51.416;6.758;2023-12-29T10:54:43;10.70;99.90
74901;DHT22;63461;51.416;6.758;2023-12-29T10:57:11;10.70;99.90
74901;DHT22;63461;51.416;6.758;2023-12-29T10:59:38;10.80;99.90
74901;DHT22;63461;51.416;6.758;2023-12-29T11:02:04;10.80;99.90
74901;DHT22;63461;51.416;6.758;2023-12-29T11:04:31;10.90;99.90
74901;DHT22;63461;51.416;6.758;2023-12-29T11:06:56;10.90;99.90
74901;DHT22;63461;51.416;6.758;2023-12-29T11:09:29;10.90;99.90
74901;DHT22;63461;51.416;6.758;2023-12-29T11:12:05;10.90;99.90
74901;DHT22;63461;51.416;6.758;2023-12-29T11:14:36;10.90;99.90
74901;DHT22;63461;51.416;6.758;2023-12-29T11:17:06;11.00;99.90
74901;DHT22;63461;51.416;6.758;2023-12-29T11:19:33;11.00;99.90
74901;DHT22;63461;51.416;6.758;2023-12-29T11:22:01;11.00;99.90
74901;DHT22;63461;51.416;6.758;2023-12-29T11:24:30;11.00;99.90
74901;DHT22;63461;51.416;6.758;2023-12-29T11:26:56;11.10;99.90
74901;DHT22;63461;51.416;6.758;2023-12-29T11:29:23;11.10;99.90
74901;DHT22;63461;51.416;6.758;2023-12-29T11:31:50;11.10;99.90
74901;DHT22;63461;51.416;6.758;2023-12-29T11:34:40;11.10;99.90
74901;DHT22;63461;51.416;6.758;2023-12-29T11:37:34;11.10;99.90
74901;DHT22;63461;51.416;6.758;2023-12-29T11:40:24;11.20;99.90
74901;DHT22;63461;51.416;6.758;2023-12-29T11:42:54;11.20;99.90
74901;DHT22;63461;51.416;6.758;2023-12-29T11:45:29;11.20;99.90
74901;DHT22;63461;51.416;6.758;2023-12-29T11:47:57;11.20;99.90
74901;DHT22;63461;51.416;6.758;2023-12-29T11:50:30;11.20;99.90
74901;DHT22;63461;51.416;6.758;2023-12-29T11:52:58;11.30;99.90
74901;DHT22;63461;51.416;6.758;2023-12-29T11:55:34;11.20;99.90
74901;DHT22;63461;51.416;6.758;2023-12-29T11:58:01;11.30;99.90
74901;DHT22;63461;51.416;6.758;2023-12-29T12:00:44;11.30;99.90
74901;DHT22;63461;51.416;6.758;2023-12-29T12:03:30;11.20;99.90
74901;DHT22;63461;51.416;6.758;2023-12-29T12:05:57;11.30;99.90
74901;DHT22;63461;51.416;6.758;2023-12-29T12:08:27;11.20;99.90
74901;DHT22;63461;51.416;6.758;2023-12-29T12:10:54;11.20;99.90
74901;DHT22;63461;51.416;6.758;2023-12-29T12:13:45;11.20;99.90
74901;DHT22;63461;51.416;6.758;2023-12-29T12:19:12;11.10;99.90
74901;DHT22;63461;51.416;6.758;2023-12-29T12:21:38;11.00;99.90
74901;DHT22;63461;51.416;6.758;2023-12-29T12:24:04;11.00;99.90
74901;DHT22;63461;51.416;6.758;2023-12-29T12:26:31;11.00;99.90
74901;DHT22;63461;51.416;6.758;2023-12-29T12:28:57;11.10;99.90
74901;DHT22;63461;51.416;6.758;2023-12-29T12:31:23;11.00;99.90
74901;DHT22;63461;51.416;6.758;2023-12-29T12:33:56;11.00;99.90
74901;DHT22;63461;51.416;6.758;2023-12-29T12:36:25;11.00;99.90
74901;DHT22;63461;51.416;6.758;2023-12-29T12:38:56;11.00;99.90
74901;DHT22;63461;51.416;6.758;2023-12-29T12:41:23;11.00;99.90
74901;DHT22;63461;51.416;6.758;2023-12-29T12:44:10;10.90;99.90
74901;DHT22;63461;51.416;6.758;2023-12-29T12:46:41;10.90;99.90
74901;DHT22;63461;51.416;6.758;2023-12-29T12:49:10;10.90;99.90
74901;DHT22;63461;51.416;6.758;2023-12-29T12:51:36;10.90;99.90
74901;DHT22;63461;51.416;6.758;2023-12-29T12:54:02;10.90;99.90
74901;DHT22;63461;51.416;6.758;2023-12-29T12:56:28;10.90;99.90
74901;DHT22;63461;51.416;6.758;2023-12-29T12:58:57;10.90;99.90
74901;DHT22;63461;51.416;6.758;2023-12-29T13:01:24;10.90;99.90
74901;DHT22;63461;51.416;6.758;2023-12-29T13:03:50;10.90;99.90
74901;DHT22;63461;51.416;6.758;2023-12-29T13:06:16;11.00;99.90
74901;DHT22;63461;51.416;6.758;2023-12-29T13:08:43;11.00;99.90
74901;DHT22;63461;51.416;6.758;2023-12-29T13:11:10;10.90;99.90
74901;DHT22;63461;51.416;6.758;2023-12-29T13:13:39;10.90;99.90
74901;DHT22;63461;51.416;6.758;2023-12-29T13:16:05;10.90;99.90
74901;DHT22;63461;51.416;6.758;2023-12-29T13:18:31;10.90;99.90
74901;DHT22;63461;51.416;6.758;2023-12-29T13:20:58;10.90;99.90
74901;DHT22;63461;51.416;6.758;2023-12-29T13:23:27;10.90;99.90
74901;DHT22;63461;51.416;6.758;2023-12-29T13:25:59;11.00;99.90
74901;DHT22;63461;51.416;6.758;2023-12-29T13:28:29;10.90;99.90
74901;DHT22;63461;51.416;6.758;2023-12-29T13:30:56;10.90;99.90
74901;DHT22;63461;51.416;6.758;2023-12-29T13:36:11;10.90;99.90
74901;DHT22;63461;51.416;6.758;2023-12-29T13:38:53;10.90;99.90
74901;DHT22;63461;51.416;6.758;2023-12-29T13:41:29;11.00;99.90
74901;DHT22;63461;51.416;6.758;2023-12-29T13:43:56;11.00;99.90
74901;DHT22;63461;51.416;6.758;2023-12-29T13:46:23;10.90;99.90
74901;DHT22;63461;51.416;6.758;2023-12-29T13:48:49;11.00;99.90
74901;DHT22;63461;51.416;6.758;2023-12-29T13:51:17;11.00;99.90
74901;DHT22;63461;51.416;6.758;2023-12-29T13:53:43;11.10;99.90
74901;DHT22;63461;51.416;6.758;2023-12-29T13:56:09;11.00;99.90
74901;DHT22;63461;51.416;6.758;2023-12-29T13:58:36;11.00;99.90
74901;DHT22;63461;51.416;6.758;2023-12-29T14:01:06;11.00;99.90
74901;DHT22;63461;51.416;6.758;2023-12-29T14:04:03;11.00;99.90
74901;DHT22;63461;51.416;6.758;2023-12-29T14:06:55;11.10;99.90
74901;DHT22;63461;51.416;6.758;2023-12-29T14:09:26;11.00;99.90
74901;DHT22;63461;51.416;6.758;2023-12-29T14:11:52;11.10;99.90
74901;DHT22;63461;51.416;6.758;2023-12-29T14:14:22;11.10;99.90
74901;DHT22;63461;51.416;6.758;2023-12-29T14:16:51;11.10;99.90
74901;DHT22;63461;51.416;6.758;2023-12-29T14:19:18;11.10;99.90
74901;DHT22;63461;51.416;6.758;2023-12-29T14:21:45;11.00;99.90
74901;DHT22;63461;51.416;6.758;2023-12-29T14:24:13;11.10;99.90
74901;DHT22;63461;51.416;6.758;2023-12-29T14:27:00;11.10;99.90
74901;DHT22;63461;51.416;6.758;2023-12-29T14:29:28;11.10;99.90
74901;DHT22;63461;51.416;6.758;2023-12-29T14:31:54;11.00;99.90
74901;DHT22;63461;51.416;6.758;2023-12-29T14:34:22;11.10;99.90
74901;DHT22;63461;51.416;6.758;2023-12-29T14:36:48;11.10;99.90
74901;DHT22;63461;51.416;6.758;2023-12-29T14:39:14;11.00;99.90
74901;DHT22;63461;51.416;6.758;2023-12-29T14:41:41;11.00;99.90
74901;DHT22;63461;51.416;6.758;2023-12-29T14:44:07;11.00;99.90
74901;DHT22;63461;51.416;6.758;2023-12-29T14:46:34;11.00;99.90
74901;DHT22;63461;51.416;6.758;2023-12-29T14:49:02;11.00;99.90
74901;DHT22;63461;51.416;6.758;2023-12-29T14:51:28;11.00;99.90
74901;DHT22;63461;51.416;6.758;2023-12-29T14:53:54;11.00;99.90
74901;DHT22;63461;51.416;6.758;2023-12-29T14:56:20;11.00;99.90
74901;DHT22;63461;51.416;6.758;2023-12-29T14:58:45;10.90;99.90
74901;DHT22;63461;51.416;6.758;2023-12-29T15:01:12;10.90;99.90
74901;DHT22;63461;51.416;6.758;2023-12-29T15:03:38;10.90;99.90
74901;DHT22;63461;51.416;6.758;2023-12-29T15:06:04;10.90;99.90
74901;DHT22;63461;51.416;6.758;2023-12-29T15:08:31;10.80;99.90
74901;DHT22;63461;51.416;6.758;2023-12-29T15:11:05;10.80;99.90
74901;DHT22;63461;51.416;6.758;2023-12-29T15:13:31;10.70;99.90
74901;DHT22;63461;51.416;6.758;2023-12-29T15:15:58;10.70;99.90
74901;DHT22;63461;51.416;6.758;2023-12-29T15:18:27;10.70;99.90
74901;DHT22;63461;51.416;6.758;2023-12-29T15:20:53;10.70;99.90
74901;DHT22;63461;51.416;6.758;2023-12-29T15:23:22;10.70;99.90
74901;DHT22;63461;51.416;6.758;2023-12-29T15:25:49;10.70;99.90
74901;DHT22;63461;51.416;6.758;2023-12-29T15:28:16;10.70;99.90
74901;DHT22;63461;51.416;6.758;2023-12-29T15:30:45;10.70;99.90
74901;DHT22;63461;51.416;6.758;2023-12-29T15:33:13;10.70;99.90
74901;DHT22;63461;51.416;6.758;2023-12-29T15:35:39;10.60;99.90
74901;DHT22;63461;51.416;6.758;2023-12-29T15:38:06;10.60;99.90
74901;DHT22;63461;51.416;6.758;2023-12-29T15:40:32;10.50;99.90
74901;DHT22;63461;51.416;6.758;2023-12-29T15:42:58;10.50;99.90
74901;DHT22;63461;51.416;6.758;2023-12-29T15:45:24;10.60;99.90
74901;DHT22;63461;51.416;6.758;2023-12-29T15:47:50;10.50;99.90